sensor_id;sensor_type;location;lat;lon;timestamp;P1;durP1;ratioP1;P2;durP2;ratioP2
20734;SDS011;10528;52.124;5.196;2022-09-06T00:00:16;3.45;;;1.35;;
20734;SDS011;10528;52.124;5.196;2022-09-06T00:02:44;2.88;;;1.90;;
20734;SDS011;10528;52.124;5.196;2022-09-06T00:05:12;2.10;;;1.50;;
20734;SDS011;10528;52.124;5.196;2022-09-06T00:07:39;3.08;;;1.85;;
20734;SDS011;10528;52.124;5.196;2022-09-06T00:10:07;2.55;;;1.70;;
20734;SDS011;10528;52.124;5.196;2022-09-06T00:12:35;2.50;;;1.80;;
20734;SDS011;10528;52.124;5.196;2022-09-06T00:15:03;3.25;;;1.85;;
20734;SDS011;10528;52.124;5.196;2022-09-06T00:17:31;2.33;;;1.80;;
20734;SDS011;10528;52.124;5.196;2022-09-06T00:19:59;3.58;;;1.80;;
20734;SDS011;10528;52.124;5.196;2022-09-06T00:22:26;2.58;;;1.70;;
20734;SDS011;10528;52.124;5.196;2022-09-06T00:24:53;3.15;;;1.70;;
20734;SDS011;10528;52.124;5.196;2022-09-06T00:27:19;5.65;;;2.15;;
20734;SDS011;10528;52.124;5.196;2022-09-06T00:29:46;3.13;;;2.13;;
20734;SDS011;10528;52.124;5.196;2022-09-06T00:32:13;3.90;;;2.20;;
20734;SDS011;10528;52.124;5.196;2022-09-06T00:34:40;3.83;;;2.10;;
20734;SDS011;10528;52.124;5.196;2022-09-06T00:37:07;5.05;;;2.67;;
20734;SDS011;10528;52.124;5.196;2022-09-06T00:39:34;2.53;;;2.10;;
20734;SDS011;10528;52.124;5.196;2022-09-06T00:42:01;5.07;;;2.47;;
20734;SDS011;10528;52.124;5.196;2022-09-06T00:44:32;3.53;;;2.70;;
20734;SDS011;10528;52.124;5.196;2022-09-06T00:46:59;3.83;;;2.78;;
20734;SDS011;10528;52.124;5.196;2022-09-06T00:49:29;5.57;;;2.20;;
20734;SDS011;10528;52.124;5.196;2022-09-06T00:52:07;4.60;;;2.53;;
20734;SDS011;10528;52.124;5.196;2022-09-06T00:54:38;5.03;;;2.45;;
20734;SDS011;10528;52.124;5.196;2022-09-06T00:57:06;3.22;;;2.50;;
20734;SDS011;10528;52.124;5.196;2022-09-06T00:59:35;4.07;;;2.42;;
20734;SDS011;10528;52.124;5.196;2022-09-06T01:02:04;6.72;;;2.92;;
20734;SDS011;10528;52.124;5.196;2022-09-06T01:04:35;4.03;;;2.28;;
20734;SDS011;10528;52.124;5.196;2022-09-06T01:07:06;4.05;;;2.60;;
20734;SDS011;10528;52.124;5.196;2022-09-06T01:10:02;6.90;;;2.40;;
20734;SDS011;10528;52.124;5.196;2022-09-06T01:25:37;3.25;;;2.45;;
20734;SDS011;10528;52.124;5.196;2022-09-06T01:28:41;5.85;;;2.60;;
20734;SDS011;10528;52.124;5.196;2022-09-06T01:37:06;4.30;;;2.40;;
20734;SDS011;10528;52.124;5.196;2022-09-06T01:39:40;4.22;;;2.28;;
20734;SDS011;10528;52.124;5.196;2022-09-06T01:42:18;3.75;;;2.72;;
20734;SDS011;10528;52.124;5.196;2022-09-06T01:45:00;3.50;;;2.60;;
20734;SDS011;10528;52.124;5.196;2022-09-06T01:50:57;3.05;;;2.47;;
20734;SDS011;10528;52.124;5.196;2022-09-06T02:05:31;6.05;;;2.22;;
20734;SDS011;10528;52.124;5.196;2022-09-06T02:11:06;3.80;;;2.45;;
20734;SDS011;10528;52.124;5.196;2022-09-06T02:13:38;5.53;;;3.00;;
20734;SDS011;10528;52.124;5.196;2022-09-06T02:16:32;3.72;;;3.00;;
20734;SDS011;10528;52.124;5.196;2022-09-06T02:19:09;4.30;;;2.80;;
20734;SDS011;10528;52.124;5.196;2022-09-06T02:21:46;4.40;;;2.92;;
20734;SDS011;10528;52.124;5.196;2022-09-06T02:24:18;3.78;;;2.90;;
20734;SDS011;10528;52.124;5.196;2022-09-06T02:26:50;5.15;;;3.08;;
20734;SDS011;10528;52.124;5.196;2022-09-06T02:29:17;4.95;;;3.47;;
20734;SDS011;10528;52.124;5.196;2022-09-06T02:31:46;4.15;;;2.75;;
20734;SDS011;10528;52.124;5.196;2022-09-06T02:34:21;3.85;;;3.08;;
20734;SDS011;10528;52.124;5.196;2022-09-06T02:36:48;7.68;;;3.28;;
20734;SDS011;10528;52.124;5.196;2022-09-06T02:39:15;5.55;;;3.30;;
20734;SDS011;10528;52.124;5.196;2022-09-06T02:41:42;3.90;;;3.08;;
20734;SDS011;10528;52.124;5.196;2022-09-06T02:44:12;3.72;;;2.80;;
20734;SDS011;10528;52.124;5.196;2022-09-06T02:46:39;3.40;;;2.83;;
20734;SDS011;10528;52.124;5.196;2022-09-06T02:49:06;3.70;;;2.90;;
20734;SDS011;10528;52.124;5.196;2022-09-06T02:51:36;4.03;;;2.85;;
20734;SDS011;10528;52.124;5.196;2022-09-06T02:54:04;4.28;;;3.10;;
20734;SDS011;10528;52.124;5.196;2022-09-06T02:56:32;8.30;;;3.17;;
20734;SDS011;10528;52.124;5.196;2022-09-06T02:59:02;4.85;;;2.92;;
20734;SDS011;10528;52.124;5.196;2022-09-06T03:01:30;4.32;;;2.80;;
20734;SDS011;10528;52.124;5.196;2022-09-06T03:03:58;4.78;;;2.83;;
20734;SDS011;10528;52.124;5.196;2022-09-06T03:06:25;3.30;;;2.95;;
20734;SDS011;10528;52.124;5.196;2022-09-06T03:08:52;5.18;;;2.95;;
20734;SDS011;10528;52.124;5.196;2022-09-06T03:11:19;3.75;;;3.03;;
20734;SDS011;10528;52.124;5.196;2022-09-06T03:13:46;4.25;;;2.90;;
20734;SDS011;10528;52.124;5.196;2022-09-06T03:16:16;4.22;;;3.40;;
20734;SDS011;10528;52.124;5.196;2022-09-06T03:18:43;4.85;;;3.08;;
20734;SDS011;10528;52.124;5.196;2022-09-06T03:21:12;4.72;;;2.72;;
20734;SDS011;10528;52.124;5.196;2022-09-06T03:23:38;5.78;;;3.20;;
20734;SDS011;10528;52.124;5.196;2022-09-06T03:26:05;3.70;;;2.80;;
20734;SDS011;10528;52.124;5.196;2022-09-06T03:28:33;4.97;;;2.85;;
20734;SDS011;10528;52.124;5.196;2022-09-06T03:30:59;3.90;;;2.85;;
20734;SDS011;10528;52.124;5.196;2022-09-06T03:33:26;3.70;;;2.60;;
20734;SDS011;10528;52.124;5.196;2022-09-06T03:35:54;4.57;;;2.92;;
20734;SDS011;10528;52.124;5.196;2022-09-06T03:38:25;4.93;;;3.00;;
20734;SDS011;10528;52.124;5.196;2022-09-06T03:40:54;4.05;;;2.97;;
20734;SDS011;10528;52.124;5.196;2022-09-06T03:43:25;6.00;;;2.75;;
20734;SDS011;10528;52.124;5.196;2022-09-06T03:45:53;4.35;;;3.10;;
20734;SDS011;10528;52.124;5.196;2022-09-06T03:48:23;3.42;;;2.67;;
20734;SDS011;10528;52.124;5.196;2022-09-06T03:50:54;4.47;;;3.10;;
20734;SDS011;10528;52.124;5.196;2022-09-06T03:53:23;4.03;;;3.05;;
20734;SDS011;10528;52.124;5.196;2022-09-06T03:55:52;3.75;;;2.60;;
20734;SDS011;10528;52.124;5.196;2022-09-06T03:58:23;4.45;;;2.88;;
20734;SDS011;10528;52.124;5.196;2022-09-06T04:01:03;3.75;;;3.20;;
20734;SDS011;10528;52.124;5.196;2022-09-06T04:03:34;4.25;;;3.00;;
20734;SDS011;10528;52.124;5.196;2022-09-06T04:06:03;5.28;;;3.28;;
20734;SDS011;10528;52.124;5.196;2022-09-06T04:08:32;4.25;;;3.10;;
20734;SDS011;10528;52.124;5.196;2022-09-06T04:10:59;3.88;;;3.33;;
20734;SDS011;10528;52.124;5.196;2022-09-06T04:13:27;4.43;;;3.17;;
20734;SDS011;10528;52.124;5.196;2022-09-06T04:15:55;3.97;;;3.30;;
20734;SDS011;10528;52.124;5.196;2022-09-06T04:18:22;5.20;;;3.63;;
20734;SDS011;10528;52.124;5.196;2022-09-06T04:20:51;6.65;;;3.90;;
20734;SDS011;10528;52.124;5.196;2022-09-06T04:23:21;4.93;;;3.53;;
20734;SDS011;10528;52.124;5.196;2022-09-06T04:25:53;4.93;;;3.90;;
20734;SDS011;10528;52.124;5.196;2022-09-06T04:28:25;5.55;;;3.80;;
20734;SDS011;10528;52.124;5.196;2022-09-06T04:30:59;6.32;;;3.80;;
20734;SDS011;10528;52.124;5.196;2022-09-06T04:33:31;6.45;;;3.90;;
20734;SDS011;10528;52.124;5.196;2022-09-06T04:36:01;5.60;;;4.22;;
20734;SDS011;10528;52.124;5.196;2022-09-06T04:38:34;5.93;;;4.00;;
20734;SDS011;10528;52.124;5.196;2022-09-06T04:41:08;6.13;;;4.70;;
20734;SDS011;10528;52.124;5.196;2022-09-06T04:43:36;6.35;;;5.15;;
20734;SDS011;10528;52.124;5.196;2022-09-06T04:46:04;5.47;;;4.53;;
20734;SDS011;10528;52.124;5.196;2022-09-06T04:48:49;6.53;;;4.63;;
20734;SDS011;10528;52.124;5.196;2022-09-06T04:51:18;5.70;;;4.40;;
20734;SDS011;10528;52.124;5.196;2022-09-06T04:53:45;6.90;;;4.45;;
20734;SDS011;10528;52.124;5.196;2022-09-06T04:56:19;6.72;;;4.63;;
20734;SDS011;10528;52.124;5.196;2022-09-06T04:58:50;5.90;;;4.18;;
20734;SDS011;10528;52.124;5.196;2022-09-06T05:01:19;5.38;;;4.13;;
20734;SDS011;10528;52.124;5.196;2022-09-06T05:03:47;6.78;;;4.50;;
20734;SDS011;10528;52.124;5.196;2022-09-06T05:06:18;5.47;;;4.53;;
20734;SDS011;10528;52.124;5.196;2022-09-06T05:08:48;5.60;;;4.40;;
20734;SDS011;10528;52.124;5.196;2022-09-06T05:11:16;5.75;;;4.72;;
20734;SDS011;10528;52.124;5.196;2022-09-06T05:13:44;6.40;;;4.95;;
20734;SDS011;10528;52.124;5.196;2022-09-06T05:16:12;5.60;;;4.90;;
20734;SDS011;10528;52.124;5.196;2022-09-06T05:18:39;6.03;;;4.75;;
20734;SDS011;10528;52.124;5.196;2022-09-06T05:21:06;6.80;;;5.38;;
20734;SDS011;10528;52.124;5.196;2022-09-06T05:23:33;9.35;;;5.53;;
20734;SDS011;10528;52.124;5.196;2022-09-06T05:26:00;8.90;;;5.45;;
20734;SDS011;10528;52.124;5.196;2022-09-06T05:28:28;8.85;;;5.45;;
20734;SDS011;10528;52.124;5.196;2022-09-06T05:31:11;6.90;;;5.38;;
20734;SDS011;10528;52.124;5.196;2022-09-06T05:33:58;7.80;;;5.53;;
20734;SDS011;10528;52.124;5.196;2022-09-06T05:36:25;8.07;;;5.32;;
20734;SDS011;10528;52.124;5.196;2022-09-06T05:38:54;7.90;;;5.78;;
20734;SDS011;10528;52.124;5.196;2022-09-06T05:41:22;8.57;;;5.28;;
20734;SDS011;10528;52.124;5.196;2022-09-06T05:43:50;7.85;;;5.93;;
20734;SDS011;10528;52.124;5.196;2022-09-06T05:46:17;6.65;;;5.25;;
20734;SDS011;10528;52.124;5.196;2022-09-06T05:48:50;7.97;;;6.15;;
20734;SDS011;10528;52.124;5.196;2022-09-06T05:51:23;7.90;;;5.80;;
20734;SDS011;10528;52.124;5.196;2022-09-06T05:53:49;6.40;;;5.70;;
20734;SDS011;10528;52.124;5.196;2022-09-06T05:56:16;6.68;;;5.55;;
20734;SDS011;10528;52.124;5.196;2022-09-06T05:58:44;7.40;;;5.60;;
20734;SDS011;10528;52.124;5.196;2022-09-06T06:01:20;8.77;;;6.68;;
20734;SDS011;10528;52.124;5.196;2022-09-06T06:03:56;8.10;;;6.10;;
20734;SDS011;10528;52.124;5.196;2022-09-06T06:06:30;8.65;;;6.57;;
20734;SDS011;10528;52.124;5.196;2022-09-06T06:08:59;7.80;;;6.57;;
20734;SDS011;10528;52.124;5.196;2022-09-06T06:11:26;13.50;;;7.30;;
20734;SDS011;10528;52.124;5.196;2022-09-06T06:13:54;10.90;;;7.43;;
20734;SDS011;10528;52.124;5.196;2022-09-06T06:16:21;8.40;;;7.07;;
20734;SDS011;10528;52.124;5.196;2022-09-06T06:18:49;10.07;;;6.97;;
20734;SDS011;10528;52.124;5.196;2022-09-06T06:23:51;10.32;;;6.72;;
20734;SDS011;10528;52.124;5.196;2022-09-06T06:26:27;9.98;;;7.53;;
20734;SDS011;10528;52.124;5.196;2022-09-06T06:29:00;10.68;;;7.15;;
20734;SDS011;10528;52.124;5.196;2022-09-06T06:31:28;10.68;;;7.10;;
20734;SDS011;10528;52.124;5.196;2022-09-06T06:33:58;9.13;;;7.50;;
20734;SDS011;10528;52.124;5.196;2022-09-06T06:36:28;8.70;;;7.53;;
20734;SDS011;10528;52.124;5.196;2022-09-06T06:38:59;10.68;;;7.40;;
20734;SDS011;10528;52.124;5.196;2022-09-06T06:41:29;8.20;;;7.22;;
20734;SDS011;10528;52.124;5.196;2022-09-06T06:43:59;9.93;;;7.53;;
20734;SDS011;10528;52.124;5.196;2022-09-06T06:46:29;9.90;;;7.20;;
20734;SDS011;10528;52.124;5.196;2022-09-06T06:48:59;9.23;;;7.50;;
20734;SDS011;10528;52.124;5.196;2022-09-06T06:51:27;9.07;;;7.53;;
20734;SDS011;10528;52.124;5.196;2022-09-06T06:53:57;8.90;;;7.10;;
20734;SDS011;10528;52.124;5.196;2022-09-06T06:56:26;10.05;;;7.45;;
20734;SDS011;10528;52.124;5.196;2022-09-06T06:58:57;10.75;;;7.15;;
20734;SDS011;10528;52.124;5.196;2022-09-06T07:01:27;8.90;;;6.70;;
20734;SDS011;10528;52.124;5.196;2022-09-06T07:03:56;8.10;;;6.57;;
20734;SDS011;10528;52.124;5.196;2022-09-06T07:06:24;10.02;;;8.23;;
20734;SDS011;10528;52.124;5.196;2022-09-06T07:09:13;10.43;;;7.57;;
20734;SDS011;10528;52.124;5.196;2022-09-06T07:11:41;8.77;;;7.07;;
20734;SDS011;10528;52.124;5.196;2022-09-06T07:14:08;10.55;;;7.80;;
20734;SDS011;10528;52.124;5.196;2022-09-06T07:16:36;8.73;;;6.80;;
20734;SDS011;10528;52.124;5.196;2022-09-06T07:19:03;8.85;;;6.43;;
20734;SDS011;10528;52.124;5.196;2022-09-06T07:21:31;10.13;;;7.03;;
20734;SDS011;10528;52.124;5.196;2022-09-06T07:24:01;9.18;;;6.20;;
20734;SDS011;10528;52.124;5.196;2022-09-06T07:26:32;8.13;;;6.63;;
20734;SDS011;10528;52.124;5.196;2022-09-06T07:29:01;8.35;;;6.70;;
20734;SDS011;10528;52.124;5.196;2022-09-06T07:31:30;8.50;;;6.43;;
20734;SDS011;10528;52.124;5.196;2022-09-06T07:34:18;7.35;;;5.70;;
20734;SDS011;10528;52.124;5.196;2022-09-06T07:36:45;8.60;;;6.38;;
20734;SDS011;10528;52.124;5.196;2022-09-06T07:39:12;8.27;;;6.45;;
20734;SDS011;10528;52.124;5.196;2022-09-06T07:41:39;7.45;;;5.70;;
20734;SDS011;10528;52.124;5.196;2022-09-06T07:44:06;7.60;;;5.65;;
20734;SDS011;10528;52.124;5.196;2022-09-06T07:46:32;7.70;;;6.07;;
20734;SDS011;10528;52.124;5.196;2022-09-06T07:48:59;9.35;;;5.90;;
20734;SDS011;10528;52.124;5.196;2022-09-06T07:51:30;8.85;;;6.32;;
20734;SDS011;10528;52.124;5.196;2022-09-06T07:53:58;9.00;;;6.03;;
20734;SDS011;10528;52.124;5.196;2022-09-06T07:56:45;7.60;;;5.20;;
20734;SDS011;10528;52.124;5.196;2022-09-06T07:59:11;6.68;;;5.22;;
20734;SDS011;10528;52.124;5.196;2022-09-06T08:01:38;8.05;;;5.93;;
20734;SDS011;10528;52.124;5.196;2022-09-06T08:06:39;8.18;;;6.20;;
20734;SDS011;10528;52.124;5.196;2022-09-06T08:09:29;9.10;;;5.47;;
20734;SDS011;10528;52.124;5.196;2022-09-06T08:11:56;7.07;;;5.50;;
20734;SDS011;10528;52.124;5.196;2022-09-06T08:14:23;7.70;;;4.95;;
20734;SDS011;10528;52.124;5.196;2022-09-06T08:16:49;7.80;;;5.65;;
20734;SDS011;10528;52.124;5.196;2022-09-06T08:19:16;7.90;;;5.35;;
20734;SDS011;10528;52.124;5.196;2022-09-06T08:21:43;10.23;;;5.93;;
20734;SDS011;10528;52.124;5.196;2022-09-06T08:24:10;11.55;;;6.30;;
20734;SDS011;10528;52.124;5.196;2022-09-06T08:26:37;7.85;;;5.60;;
20734;SDS011;10528;52.124;5.196;2022-09-06T08:29:05;8.20;;;5.95;;
20734;SDS011;10528;52.124;5.196;2022-09-06T08:31:35;8.93;;;5.97;;
20734;SDS011;10528;52.124;5.196;2022-09-06T08:34:08;9.32;;;6.50;;
20734;SDS011;10528;52.124;5.196;2022-09-06T08:36:37;9.43;;;7.28;;
20734;SDS011;10528;52.124;5.196;2022-09-06T08:39:05;8.57;;;6.50;;
20734;SDS011;10528;52.124;5.196;2022-09-06T08:42:20;8.13;;;6.00;;
20734;SDS011;10528;52.124;5.196;2022-09-06T08:44:30;7.95;;;6.10;;
20734;SDS011;10528;52.124;5.196;2022-09-06T08:47:21;9.52;;;6.10;;
20734;SDS011;10528;52.124;5.196;2022-09-06T08:49:50;6.95;;;5.78;;
20734;SDS011;10528;52.124;5.196;2022-09-06T08:55:58;6.55;;;5.75;;
20734;SDS011;10528;52.124;5.196;2022-09-06T09:01:40;9.13;;;6.13;;
20734;SDS011;10528;52.124;5.196;2022-09-06T09:04:35;8.00;;;5.75;;
20734;SDS011;10528;52.124;5.196;2022-09-06T09:10:22;6.68;;;4.95;;
20734;SDS011;10528;52.124;5.196;2022-09-06T09:12:59;7.50;;;5.50;;
20734;SDS011;10528;52.124;5.196;2022-09-06T09:15:32;8.85;;;6.57;;
20734;SDS011;10528;52.124;5.196;2022-09-06T09:18:05;6.70;;;5.47;;
20734;SDS011;10528;52.124;5.196;2022-09-06T09:20:32;6.07;;;4.60;;
20734;SDS011;10528;52.124;5.196;2022-09-06T09:23:00;7.15;;;4.93;;
20734;SDS011;10528;52.124;5.196;2022-09-06T09:25:27;10.18;;;6.38;;
20734;SDS011;10528;52.124;5.196;2022-09-06T09:27:57;8.75;;;6.50;;
20734;SDS011;10528;52.124;5.196;2022-09-06T09:30:26;7.95;;;5.72;;
20734;SDS011;10528;52.124;5.196;2022-09-06T09:33:47;5.55;;;4.30;;
20734;SDS011;10528;52.124;5.196;2022-09-06T09:36:09;7.78;;;5.90;;
20734;SDS011;10528;52.124;5.196;2022-09-06T09:38:42;8.95;;;6.93;;
20734;SDS011;10528;52.124;5.196;2022-09-06T09:41:28;6.68;;;5.97;;
20734;SDS011;10528;52.124;5.196;2022-09-06T09:44:02;6.80;;;5.07;;
20734;SDS011;10528;52.124;5.196;2022-09-06T09:46:42;9.50;;;5.22;;
20734;SDS011;10528;52.124;5.196;2022-09-06T09:52:03;6.38;;;5.25;;
20734;SDS011;10528;52.124;5.196;2022-09-06T09:54:34;7.18;;;4.43;;
20734;SDS011;10528;52.124;5.196;2022-09-06T09:57:08;7.10;;;5.10;;
20734;SDS011;10528;52.124;5.196;2022-09-06T09:59:45;6.20;;;4.43;;
20734;SDS011;10528;52.124;5.196;2022-09-06T10:02:32;7.43;;;6.22;;
20734;SDS011;10528;52.124;5.196;2022-09-06T10:05:05;8.55;;;5.15;;
20734;SDS011;10528;52.124;5.196;2022-09-06T10:07:52;6.65;;;4.53;;
20734;SDS011;10528;52.124;5.196;2022-09-06T10:10:22;5.70;;;4.40;;
20734;SDS011;10528;52.124;5.196;2022-09-06T10:15:34;6.25;;;4.57;;
20734;SDS011;10528;52.124;5.196;2022-09-06T10:18:04;6.03;;;3.97;;
20734;SDS011;10528;52.124;5.196;2022-09-06T10:20:39;9.52;;;4.30;;
20734;SDS011;10528;52.124;5.196;2022-09-06T10:26:35;4.70;;;2.90;;
20734;SDS011;10528;52.124;5.196;2022-09-06T10:32:14;4.22;;;2.47;;
20734;SDS011;10528;52.124;5.196;2022-09-06T10:35:10;4.15;;;2.40;;
20734;SDS011;10528;52.124;5.196;2022-09-06T10:43:21;5.65;;;3.15;;
20734;SDS011;10528;52.124;5.196;2022-09-06T10:48:31;4.00;;;2.80;;
20734;SDS011;10528;52.124;5.196;2022-09-06T10:51:13;6.10;;;2.67;;
20734;SDS011;10528;52.124;5.196;2022-09-06T10:56:43;5.78;;;4.03;;
20734;SDS011;10528;52.124;5.196;2022-09-06T10:59:42;5.47;;;3.83;;
20734;SDS011;10528;52.124;5.196;2022-09-06T11:05:11;5.18;;;2.80;;
20734;SDS011;10528;52.124;5.196;2022-09-06T11:08:07;6.65;;;3.00;;
20734;SDS011;10528;52.124;5.196;2022-09-06T11:11:10;4.07;;;3.17;;
20734;SDS011;10528;52.124;5.196;2022-09-06T11:13:48;3.85;;;2.55;;
20734;SDS011;10528;52.124;5.196;2022-09-06T11:16:25;7.00;;;2.90;;
20734;SDS011;10528;52.124;5.196;2022-09-06T11:19:03;6.70;;;2.55;;
20734;SDS011;10528;52.124;5.196;2022-09-06T11:27:52;4.78;;;3.10;;
20734;SDS011;10528;52.124;5.196;2022-09-06T11:30:26;5.00;;;2.53;;
20734;SDS011;10528;52.124;5.196;2022-09-06T11:33:05;4.97;;;3.08;;
20734;SDS011;10528;52.124;5.196;2022-09-06T11:39:10;5.35;;;3.28;;
20734;SDS011;10528;52.124;5.196;2022-09-06T11:41:39;5.78;;;3.17;;
20734;SDS011;10528;52.124;5.196;2022-09-06T11:44:08;5.80;;;4.68;;
20734;SDS011;10528;52.124;5.196;2022-09-06T11:46:55;5.85;;;3.65;;
20734;SDS011;10528;52.124;5.196;2022-09-06T11:49:33;7.47;;;4.65;;
20734;SDS011;10528;52.124;5.196;2022-09-06T11:52:25;7.57;;;5.80;;
20734;SDS011;10528;52.124;5.196;2022-09-06T11:55:38;7.43;;;5.30;;
20734;SDS011;10528;52.124;5.196;2022-09-06T12:00:44;7.35;;;5.38;;
20734;SDS011;10528;52.124;5.196;2022-09-06T12:06:34;9.48;;;6.45;;
20734;SDS011;10528;52.124;5.196;2022-09-06T12:11:56;7.25;;;5.05;;
20734;SDS011;10528;52.124;5.196;2022-09-06T12:14:29;7.32;;;5.47;;
20734;SDS011;10528;52.124;5.196;2022-09-06T12:19:46;9.45;;;7.43;;
20734;SDS011;10528;52.124;5.196;2022-09-06T12:24:55;12.23;;;7.32;;
20734;SDS011;10528;52.124;5.196;2022-09-06T12:33:04;10.07;;;6.97;;
20734;SDS011;10528;52.124;5.196;2022-09-06T12:35:38;10.02;;;7.07;;
20734;SDS011;10528;52.124;5.196;2022-09-06T12:38:23;11.15;;;5.78;;
20734;SDS011;10528;52.124;5.196;2022-09-06T12:40:51;8.20;;;5.88;;
20734;SDS011;10528;52.124;5.196;2022-09-06T12:43:23;8.30;;;5.93;;
20734;SDS011;10528;52.124;5.196;2022-09-06T12:45:51;8.52;;;5.88;;
20734;SDS011;10528;52.124;5.196;2022-09-06T12:48:26;8.05;;;5.93;;
20734;SDS011;10528;52.124;5.196;2022-09-06T12:51:09;7.03;;;5.53;;
20734;SDS011;10528;52.124;5.196;2022-09-06T12:53:48;8.35;;;5.57;;
20734;SDS011;10528;52.124;5.196;2022-09-06T12:56:18;7.32;;;5.38;;
20734;SDS011;10528;52.124;5.196;2022-09-06T12:58:48;8.07;;;4.88;;
20734;SDS011;10528;52.124;5.196;2022-09-06T13:01:26;7.78;;;4.80;;
20734;SDS011;10528;52.124;5.196;2022-09-06T13:06:40;7.90;;;4.97;;
20734;SDS011;10528;52.124;5.196;2022-09-06T13:09:12;8.77;;;5.13;;
20734;SDS011;10528;52.124;5.196;2022-09-06T13:11:45;7.38;;;5.95;;
20734;SDS011;10528;52.124;5.196;2022-09-06T13:14:26;8.45;;;5.10;;
20734;SDS011;10528;52.124;5.196;2022-09-06T13:16:57;7.47;;;5.10;;
20734;SDS011;10528;52.124;5.196;2022-09-06T13:21:59;10.40;;;5.10;;
20734;SDS011;10528;52.124;5.196;2022-09-06T13:26:59;6.45;;;4.35;;
20734;SDS011;10528;52.124;5.196;2022-09-06T13:29:29;7.85;;;4.85;;
20734;SDS011;10528;52.124;5.196;2022-09-06T13:31:58;8.35;;;5.28;;
20734;SDS011;10528;52.124;5.196;2022-09-06T13:34:28;6.00;;;4.47;;
20734;SDS011;10528;52.124;5.196;2022-09-06T13:36:58;7.97;;;5.97;;
20734;SDS011;10528;52.124;5.196;2022-09-06T13:39:31;6.82;;;4.68;;
20734;SDS011;10528;52.124;5.196;2022-09-06T13:42:03;5.88;;;3.67;;
20734;SDS011;10528;52.124;5.196;2022-09-06T13:44:37;7.15;;;4.90;;
20734;SDS011;10528;52.124;5.196;2022-09-06T13:47:05;6.00;;;3.85;;
20734;SDS011;10528;52.124;5.196;2022-09-06T13:49:32;8.30;;;4.78;;
20734;SDS011;10528;52.124;5.196;2022-09-06T13:52:00;9.68;;;5.50;;
20734;SDS011;10528;52.124;5.196;2022-09-06T13:54:30;4.95;;;3.70;;
20734;SDS011;10528;52.124;5.196;2022-09-06T13:56:57;6.13;;;3.88;;
20734;SDS011;10528;52.124;5.196;2022-09-06T13:59:25;6.45;;;4.40;;
20734;SDS011;10528;52.124;5.196;2022-09-06T14:02:04;5.32;;;3.17;;
20734;SDS011;10528;52.124;5.196;2022-09-06T14:04:37;4.55;;;3.78;;
20734;SDS011;10528;52.124;5.196;2022-09-06T14:07:04;4.00;;;3.53;;
20734;SDS011;10528;52.124;5.196;2022-09-06T14:09:31;6.43;;;4.05;;
20734;SDS011;10528;52.124;5.196;2022-09-06T14:11:59;5.10;;;3.60;;
20734;SDS011;10528;52.124;5.196;2022-09-06T14:14:26;4.57;;;2.97;;
20734;SDS011;10528;52.124;5.196;2022-09-06T14:16:52;4.72;;;3.38;;
20734;SDS011;10528;52.124;5.196;2022-09-06T14:19:19;5.65;;;3.30;;
20734;SDS011;10528;52.124;5.196;2022-09-06T14:21:46;5.25;;;3.00;;
20734;SDS011;10528;52.124;5.196;2022-09-06T14:24:13;5.53;;;3.58;;
20734;SDS011;10528;52.124;5.196;2022-09-06T14:26:40;4.05;;;2.58;;
20734;SDS011;10528;52.124;5.196;2022-09-06T14:29:07;4.60;;;2.78;;
20734;SDS011;10528;52.124;5.196;2022-09-06T14:31:34;6.13;;;3.85;;
20734;SDS011;10528;52.124;5.196;2022-09-06T14:34:02;7.35;;;4.40;;
20734;SDS011;10528;52.124;5.196;2022-09-06T14:36:30;6.57;;;3.80;;
20734;SDS011;10528;52.124;5.196;2022-09-06T14:39:01;4.68;;;3.40;;
20734;SDS011;10528;52.124;5.196;2022-09-06T14:41:28;5.30;;;3.00;;
20734;SDS011;10528;52.124;5.196;2022-09-06T14:43:56;4.72;;;3.67;;
20734;SDS011;10528;52.124;5.196;2022-09-06T14:46:25;5.00;;;3.50;;
20734;SDS011;10528;52.124;5.196;2022-09-06T14:48:55;6.13;;;3.80;;
20734;SDS011;10528;52.124;5.196;2022-09-06T14:51:28;5.50;;;3.40;;
20734;SDS011;10528;52.124;5.196;2022-09-06T14:53:57;7.53;;;4.82;;
20734;SDS011;10528;52.124;5.196;2022-09-06T14:56:29;5.72;;;3.15;;
20734;SDS011;10528;52.124;5.196;2022-09-06T14:58:56;4.72;;;3.00;;
20734;SDS011;10528;52.124;5.196;2022-09-06T15:01:26;5.38;;;3.10;;
20734;SDS011;10528;52.124;5.196;2022-09-06T15:04:03;4.40;;;3.35;;
20734;SDS011;10528;52.124;5.196;2022-09-06T15:06:51;4.38;;;3.53;;
20734;SDS011;10528;52.124;5.196;2022-09-06T15:09:19;7.65;;;3.45;;
20734;SDS011;10528;52.124;5.196;2022-09-06T15:11:46;7.32;;;3.92;;
20734;SDS011;10528;52.124;5.196;2022-09-06T15:14:23;3.70;;;2.90;;
20734;SDS011;10528;52.124;5.196;2022-09-06T15:16:53;8.88;;;3.70;;
20734;SDS011;10528;52.124;5.196;2022-09-06T15:19:25;5.07;;;3.03;;
20734;SDS011;10528;52.124;5.196;2022-09-06T15:21:55;5.50;;;3.33;;
20734;SDS011;10528;52.124;5.196;2022-09-06T15:24:22;5.68;;;3.30;;
20734;SDS011;10528;52.124;5.196;2022-09-06T15:26:50;6.35;;;3.10;;
20734;SDS011;10528;52.124;5.196;2022-09-06T15:29:16;5.15;;;2.88;;
20734;SDS011;10528;52.124;5.196;2022-09-06T15:31:45;4.97;;;3.10;;
20734;SDS011;10528;52.124;5.196;2022-09-06T15:34:16;5.45;;;2.78;;
20734;SDS011;10528;52.124;5.196;2022-09-06T15:36:46;6.40;;;3.03;;
20734;SDS011;10528;52.124;5.196;2022-09-06T15:39:14;5.10;;;3.17;;
20734;SDS011;10528;52.124;5.196;2022-09-06T15:41:41;3.47;;;2.13;;
20734;SDS011;10528;52.124;5.196;2022-09-06T15:44:09;4.00;;;2.47;;
20734;SDS011;10528;52.124;5.196;2022-09-06T15:46:47;3.83;;;2.00;;
20734;SDS011;10528;52.124;5.196;2022-09-06T15:49:24;3.10;;;1.63;;
20734;SDS011;10528;52.124;5.196;2022-09-06T15:51:58;3.22;;;1.40;;
20734;SDS011;10528;52.124;5.196;2022-09-06T15:54:27;2.22;;;1.00;;
20734;SDS011;10528;52.124;5.196;2022-09-06T15:57:13;3.13;;;0.88;;
20734;SDS011;10528;52.124;5.196;2022-09-06T15:59:42;2.10;;;0.90;;
20734;SDS011;10528;52.124;5.196;2022-09-06T16:02:10;2.60;;;0.93;;
20734;SDS011;10528;52.124;5.196;2022-09-06T16:04:37;2.45;;;0.73;;
20734;SDS011;10528;52.124;5.196;2022-09-06T16:07:04;2.33;;;1.10;;
20734;SDS011;10528;52.124;5.196;2022-09-06T16:09:32;2.42;;;0.88;;
20734;SDS011;10528;52.124;5.196;2022-09-06T16:11:59;2.85;;;1.10;;
20734;SDS011;10528;52.124;5.196;2022-09-06T16:14:26;2.33;;;0.90;;
20734;SDS011;10528;52.124;5.196;2022-09-06T16:16:53;3.78;;;1.00;;
20734;SDS011;10528;52.124;5.196;2022-09-06T16:19:21;2.53;;;1.23;;
20734;SDS011;10528;52.124;5.196;2022-09-06T16:21:49;2.13;;;1.52;;
20734;SDS011;10528;52.124;5.196;2022-09-06T16:24:16;2.40;;;1.42;;
20734;SDS011;10528;52.124;5.196;2022-09-06T16:26:43;15.10;;;2.22;;
20734;SDS011;10528;52.124;5.196;2022-09-06T16:29:13;2.55;;;1.35;;
20734;SDS011;10528;52.124;5.196;2022-09-06T16:31:43;3.45;;;1.50;;
20734;SDS011;10528;52.124;5.196;2022-09-06T16:34:11;3.38;;;1.60;;
20734;SDS011;10528;52.124;5.196;2022-09-06T16:36:39;4.68;;;1.50;;
20734;SDS011;10528;52.124;5.196;2022-09-06T16:39:07;3.22;;;1.45;;
20734;SDS011;10528;52.124;5.196;2022-09-06T16:44:10;3.08;;;1.40;;
20734;SDS011;10528;52.124;5.196;2022-09-06T16:46:42;3.15;;;1.40;;
20734;SDS011;10528;52.124;5.196;2022-09-06T16:49:12;3.00;;;1.33;;
20734;SDS011;10528;52.124;5.196;2022-09-06T16:51:42;2.67;;;1.30;;
20734;SDS011;10528;52.124;5.196;2022-09-06T16:54:09;3.55;;;1.23;;
20734;SDS011;10528;52.124;5.196;2022-09-06T16:56:37;5.38;;;1.67;;
20734;SDS011;10528;52.124;5.196;2022-09-06T16:59:05;4.45;;;1.30;;
20734;SDS011;10528;52.124;5.196;2022-09-06T17:01:36;2.03;;;1.80;;
20734;SDS011;10528;52.124;5.196;2022-09-06T17:04:10;3.88;;;1.10;;
20734;SDS011;10528;52.124;5.196;2022-09-06T17:06:40;2.35;;;1.40;;
20734;SDS011;10528;52.124;5.196;2022-09-06T17:09:10;3.38;;;1.20;;
20734;SDS011;10528;52.124;5.196;2022-09-06T17:11:40;3.13;;;1.50;;